sensor_id;sensor_type;location;lat;lon;timestamp;P1;durP1;ratioP1;P2;durP2;ratioP2
37529;SDS011;23374;52.758;6.872;2022-09-09T00:05:04;5.97;;;3.87;;
37529;SDS011;23374;52.758;6.872;2022-09-09T00:09:40;5.50;;;2.97;;
37529;SDS011;23374;52.758;6.872;2022-09-09T00:13:42;4.80;;;3.10;;
37529;SDS011;23374;52.758;6.872;2022-09-09T00:16:28;4.83;;;3.13;;
37529;SDS011;23374;52.758;6.872;2022-09-09T00:19:08;10.20;;;3.27;;
37529;SDS011;23374;52.758;6.872;2022-09-09T00:25:26;3.87;;;2.67;;
37529;SDS011;23374;52.758;6.872;2022-09-09T00:27:53;6.57;;;3.00;;
37529;SDS011;23374;52.758;6.872;2022-09-09T00:30:25;4.90;;;3.33;;
37529;SDS011;23374;52.758;6.872;2022-09-09T00:32:54;6.20;;;3.53;;
37529;SDS011;23374;52.758;6.872;2022-09-09T00:35:54;8.83;;;3.30;;
37529;SDS011;23374;52.758;6.872;2022-09-09T00:38:31;6.20;;;3.10;;
37529;SDS011;23374;52.758;6.872;2022-09-09T00:41:18;6.07;;;3.57;;
37529;SDS011;23374;52.758;6.872;2022-09-09T00:47:47;5.83;;;2.97;;
37529;SDS011;23374;52.758;6.872;2022-09-09T00:51:44;5.57;;;3.00;;
37529;SDS011;23374;52.758;6.872;2022-09-09T00:55:58;5.33;;;3.07;;
37529;SDS011;23374;52.758;6.872;2022-09-09T00:58:32;5.53;;;3.13;;
37529;SDS011;23374;52.758;6.872;2022-09-09T01:01:04;5.47;;;3.43;;
37529;SDS011;23374;52.758;6.872;2022-09-09T01:03:36;10.13;;;3.40;;
37529;SDS011;23374;52.758;6.872;2022-09-09T01:06:30;7.47;;;3.23;;
37529;SDS011;23374;52.758;6.872;2022-09-09T01:15:14;6.30;;;2.97;;
37529;SDS011;23374;52.758;6.872;2022-09-09T01:18:10;9.73;;;2.80;;
37529;SDS011;23374;52.758;6.872;2022-09-09T01:26:18;6.67;;;3.10;;
37529;SDS011;23374;52.758;6.872;2022-09-09T01:28:47;6.97;;;3.30;;
37529;SDS011;23374;52.758;6.872;2022-09-09T01:31:11;5.53;;;3.00;;
37529;SDS011;23374;52.758;6.872;2022-09-09T01:33:37;5.57;;;2.80;;
37529;SDS011;23374;52.758;6.872;2022-09-09T01:36:08;5.27;;;2.87;;
37529;SDS011;23374;52.758;6.872;2022-09-09T01:38:33;6.53;;;3.50;;
37529;SDS011;23374;52.758;6.872;2022-09-09T01:40:54;6.17;;;3.03;;
37529;SDS011;23374;52.758;6.872;2022-09-09T01:43:15;7.07;;;3.80;;
37529;SDS011;23374;52.758;6.872;2022-09-09T01:47:33;8.60;;;4.47;;
37529;SDS011;23374;52.758;6.872;2022-09-09T01:49:55;6.40;;;3.63;;
37529;SDS011;23374;52.758;6.872;2022-09-09T01:52:15;6.13;;;3.73;;
37529;SDS011;23374;52.758;6.872;2022-09-09T01:54:35;9.07;;;3.53;;
37529;SDS011;23374;52.758;6.872;2022-09-09T01:57:21;7.77;;;3.60;;
37529;SDS011;23374;52.758;6.872;2022-09-09T02:00:05;4.67;;;3.20;;
37529;SDS011;23374;52.758;6.872;2022-09-09T02:02:38;5.60;;;3.47;;
37529;SDS011;23374;52.758;6.872;2022-09-09T02:06:44;5.87;;;3.60;;
37529;SDS011;23374;52.758;6.872;2022-09-09T02:09:10;9.97;;;4.07;;
37529;SDS011;23374;52.758;6.872;2022-09-09T02:11:32;6.70;;;3.73;;
37529;SDS011;23374;52.758;6.872;2022-09-09T02:14:01;7.97;;;4.37;;
37529;SDS011;23374;52.758;6.872;2022-09-09T02:16:53;5.10;;;3.23;;
37529;SDS011;23374;52.758;6.872;2022-09-09T02:19:23;5.43;;;3.57;;
37529;SDS011;23374;52.758;6.872;2022-09-09T02:21:50;8.67;;;3.47;;
37529;SDS011;23374;52.758;6.872;2022-09-09T02:24:15;6.67;;;3.50;;
37529;SDS011;23374;52.758;6.872;2022-09-09T02:26:39;9.70;;;3.70;;
37529;SDS011;23374;52.758;6.872;2022-09-09T02:29:03;12.07;;;4.43;;
37529;SDS011;23374;52.758;6.872;2022-09-09T02:31:27;5.20;;;3.50;;
37529;SDS011;23374;52.758;6.872;2022-09-09T02:33:52;10.23;;;4.33;;
37529;SDS011;23374;52.758;6.872;2022-09-09T02:36:16;7.73;;;4.17;;
37529;SDS011;23374;52.758;6.872;2022-09-09T02:38:41;6.63;;;4.80;;
37529;SDS011;23374;52.758;6.872;2022-09-09T02:41:05;6.37;;;4.17;;
37529;SDS011;23374;52.758;6.872;2022-09-09T02:43:33;7.83;;;4.47;;
37529;SDS011;23374;52.758;6.872;2022-09-09T02:47:42;7.20;;;3.80;;
37529;SDS011;23374;52.758;6.872;2022-09-09T02:50:34;9.03;;;4.13;;
37529;SDS011;23374;52.758;6.872;2022-09-09T02:53:30;6.90;;;3.77;;
37529;SDS011;23374;52.758;6.872;2022-09-09T02:59:04;4.73;;;3.00;;
37529;SDS011;23374;52.758;6.872;2022-09-09T03:01:24;4.30;;;2.63;;
37529;SDS011;23374;52.758;6.872;2022-09-09T03:03:45;6.67;;;3.27;;
37529;SDS011;23374;52.758;6.872;2022-09-09T03:06:06;5.30;;;3.03;;
37529;SDS011;23374;52.758;6.872;2022-09-09T03:08:26;7.40;;;3.10;;
37529;SDS011;23374;52.758;6.872;2022-09-09T03:10:47;5.50;;;3.10;;
37529;SDS011;23374;52.758;6.872;2022-09-09T03:13:08;7.97;;;3.00;;
37529;SDS011;23374;52.758;6.872;2022-09-09T03:15:28;4.30;;;2.60;;
37529;SDS011;23374;52.758;6.872;2022-09-09T03:17:51;2.70;;;2.10;;
37529;SDS011;23374;52.758;6.872;2022-09-09T03:20:11;3.80;;;2.00;;
37529;SDS011;23374;52.758;6.872;2022-09-09T03:22:32;2.30;;;1.20;;
37529;SDS011;23374;52.758;6.872;2022-09-09T03:24:53;3.43;;;1.10;;
37529;SDS011;23374;52.758;6.872;2022-09-09T03:27:14;1.10;;;0.80;;
37529;SDS011;23374;52.758;6.872;2022-09-09T03:29:34;1.90;;;0.83;;
37529;SDS011;23374;52.758;6.872;2022-09-09T03:31:54;2.13;;;0.77;;
37529;SDS011;23374;52.758;6.872;2022-09-09T03:34:14;2.37;;;0.90;;
37529;SDS011;23374;52.758;6.872;2022-09-09T03:36:36;1.17;;;0.90;;
37529;SDS011;23374;52.758;6.872;2022-09-09T03:38:56;1.60;;;1.00;;
37529;SDS011;23374;52.758;6.872;2022-09-09T03:41:17;1.57;;;1.00;;
37529;SDS011;23374;52.758;6.872;2022-09-09T03:43:38;2.47;;;1.67;;
37529;SDS011;23374;52.758;6.872;2022-09-09T03:47:43;4.97;;;2.60;;
37529;SDS011;23374;52.758;6.872;2022-09-09T03:50:05;6.13;;;2.80;;
37529;SDS011;23374;52.758;6.872;2022-09-09T03:52:29;6.20;;;3.20;;
37529;SDS011;23374;52.758;6.872;2022-09-09T03:54:50;4.40;;;3.10;;
37529;SDS011;23374;52.758;6.872;2022-09-09T03:57:11;6.13;;;4.10;;
37529;SDS011;23374;52.758;6.872;2022-09-09T03:59:32;10.23;;;4.23;;
37529;SDS011;23374;52.758;6.872;2022-09-09T04:01:54;10.20;;;4.87;;
37529;SDS011;23374;52.758;6.872;2022-09-09T04:04:16;7.27;;;4.40;;
37529;SDS011;23374;52.758;6.872;2022-09-09T04:06:37;6.60;;;4.10;;
37529;SDS011;23374;52.758;6.872;2022-09-09T04:08:57;8.10;;;4.73;;
37529;SDS011;23374;52.758;6.872;2022-09-09T04:11:17;6.40;;;4.27;;
37529;SDS011;23374;52.758;6.872;2022-09-09T04:13:38;9.03;;;5.43;;
37529;SDS011;23374;52.758;6.872;2022-09-09T04:16:00;7.73;;;4.60;;
37529;SDS011;23374;52.758;6.872;2022-09-09T04:18:21;8.03;;;4.63;;
37529;SDS011;23374;52.758;6.872;2022-09-09T04:20:43;9.37;;;5.60;;
37529;SDS011;23374;52.758;6.872;2022-09-09T04:23:06;5.60;;;4.17;;
37529;SDS011;23374;52.758;6.872;2022-09-09T04:25:26;9.07;;;5.30;;
37529;SDS011;23374;52.758;6.872;2022-09-09T04:27:47;7.53;;;4.50;;
37529;SDS011;23374;52.758;6.872;2022-09-09T04:30:08;9.40;;;4.50;;
37529;SDS011;23374;52.758;6.872;2022-09-09T04:32:32;8.50;;;4.43;;
37529;SDS011;23374;52.758;6.872;2022-09-09T04:34:53;9.27;;;4.43;;
37529;SDS011;23374;52.758;6.872;2022-09-09T04:37:13;6.53;;;4.47;;
37529;SDS011;23374;52.758;6.872;2022-09-09T04:39:34;6.67;;;4.10;;
37529;SDS011;23374;52.758;6.872;2022-09-09T04:41:54;8.60;;;4.40;;
37529;SDS011;23374;52.758;6.872;2022-09-09T04:44:15;7.70;;;4.67;;
37529;SDS011;23374;52.758;6.872;2022-09-09T04:46:35;8.60;;;4.47;;
37529;SDS011;23374;52.758;6.872;2022-09-09T04:48:56;6.30;;;4.77;;
37529;SDS011;23374;52.758;6.872;2022-09-09T04:51:16;7.37;;;5.00;;
37529;SDS011;23374;52.758;6.872;2022-09-09T04:53:37;7.73;;;4.93;;
37529;SDS011;23374;52.758;6.872;2022-09-09T04:56:05;7.20;;;4.23;;
37529;SDS011;23374;52.758;6.872;2022-09-09T04:58:31;6.87;;;4.30;;
37529;SDS011;23374;52.758;6.872;2022-09-09T05:00:51;6.67;;;3.90;;
37529;SDS011;23374;52.758;6.872;2022-09-09T05:03:12;7.33;;;4.23;;
37529;SDS011;23374;52.758;6.872;2022-09-09T05:05:33;8.57;;;4.67;;
37529;SDS011;23374;52.758;6.872;2022-09-09T05:07:53;6.90;;;4.07;;
37529;SDS011;23374;52.758;6.872;2022-09-09T05:10:14;6.47;;;3.93;;
37529;SDS011;23374;52.758;6.872;2022-09-09T05:12:36;6.20;;;4.20;;
37529;SDS011;23374;52.758;6.872;2022-09-09T05:14:56;7.37;;;3.63;;
37529;SDS011;23374;52.758;6.872;2022-09-09T05:17:16;6.50;;;3.97;;
37529;SDS011;23374;52.758;6.872;2022-09-09T05:19:37;8.43;;;4.10;;
37529;SDS011;23374;52.758;6.872;2022-09-09T05:21:57;7.93;;;3.67;;
37529;SDS011;23374;52.758;6.872;2022-09-09T05:24:18;7.13;;;3.80;;
37529;SDS011;23374;52.758;6.872;2022-09-09T05:26:39;7.20;;;4.27;;
37529;SDS011;23374;52.758;6.872;2022-09-09T05:29:00;6.60;;;4.17;;
37529;SDS011;23374;52.758;6.872;2022-09-09T05:31:21;9.30;;;4.47;;
37529;SDS011;23374;52.758;6.872;2022-09-09T05:33:42;7.53;;;4.60;;
37529;SDS011;23374;52.758;6.872;2022-09-09T05:36:09;6.93;;;4.13;;
37529;SDS011;23374;52.758;6.872;2022-09-09T05:38:32;6.93;;;4.37;;
37529;SDS011;23374;52.758;6.872;2022-09-09T05:40:53;12.23;;;3.93;;
37529;SDS011;23374;52.758;6.872;2022-09-09T05:43:14;5.97;;;4.17;;
37529;SDS011;23374;52.758;6.872;2022-09-09T05:45:35;7.87;;;4.60;;
37529;SDS011;23374;52.758;6.872;2022-09-09T05:47:55;7.07;;;3.80;;
37529;SDS011;23374;52.758;6.872;2022-09-09T05:50:17;5.57;;;3.93;;
37529;SDS011;23374;52.758;6.872;2022-09-09T05:52:37;9.03;;;4.00;;
37529;SDS011;23374;52.758;6.872;2022-09-09T05:54:57;8.17;;;4.43;;
37529;SDS011;23374;52.758;6.872;2022-09-09T05:57:18;5.50;;;3.63;;
37529;SDS011;23374;52.758;6.872;2022-09-09T05:59:39;6.17;;;4.40;;
37529;SDS011;23374;52.758;6.872;2022-09-09T06:02:00;5.63;;;3.83;;
37529;SDS011;23374;52.758;6.872;2022-09-09T06:04:20;7.67;;;4.23;;
37529;SDS011;23374;52.758;6.872;2022-09-09T06:06:41;8.60;;;3.97;;
37529;SDS011;23374;52.758;6.872;2022-09-09T06:09:03;7.13;;;4.20;;
37529;SDS011;23374;52.758;6.872;2022-09-09T06:11:30;6.60;;;4.27;;
37529;SDS011;23374;52.758;6.872;2022-09-09T06:13:51;5.90;;;4.27;;
37529;SDS011;23374;52.758;6.872;2022-09-09T06:16:16;7.97;;;4.27;;
37529;SDS011;23374;52.758;6.872;2022-09-09T06:18:38;8.17;;;3.83;;
37529;SDS011;23374;52.758;6.872;2022-09-09T06:21:01;8.57;;;4.00;;
37529;SDS011;23374;52.758;6.872;2022-09-09T06:23:24;10.60;;;4.50;;
37529;SDS011;23374;52.758;6.872;2022-09-09T06:25:46;6.50;;;4.07;;
37529;SDS011;23374;52.758;6.872;2022-09-09T06:28:06;11.67;;;4.60;;
37529;SDS011;23374;52.758;6.872;2022-09-09T06:30:27;9.27;;;4.37;;
37529;SDS011;23374;52.758;6.872;2022-09-09T06:32:47;10.87;;;4.70;;
37529;SDS011;23374;52.758;6.872;2022-09-09T06:35:07;10.13;;;4.53;;
37529;SDS011;23374;52.758;6.872;2022-09-09T06:37:28;10.80;;;4.67;;
37529;SDS011;23374;52.758;6.872;2022-09-09T06:39:48;11.87;;;5.17;;
37529;SDS011;23374;52.758;6.872;2022-09-09T06:42:10;11.00;;;5.73;;
37529;SDS011;23374;52.758;6.872;2022-09-09T06:44:30;7.40;;;4.17;;
37529;SDS011;23374;52.758;6.872;2022-09-09T06:46:52;7.23;;;4.00;;
37529;SDS011;23374;52.758;6.872;2022-09-09T06:49:12;6.33;;;4.13;;
37529;SDS011;23374;52.758;6.872;2022-09-09T06:51:35;7.57;;;4.33;;
37529;SDS011;23374;52.758;6.872;2022-09-09T06:53:58;6.43;;;3.97;;
37529;SDS011;23374;52.758;6.872;2022-09-09T06:56:32;6.63;;;4.00;;
37529;SDS011;23374;52.758;6.872;2022-09-09T06:58:56;7.23;;;4.20;;
37529;SDS011;23374;52.758;6.872;2022-09-09T07:01:25;7.27;;;4.40;;
37529;SDS011;23374;52.758;6.872;2022-09-09T07:03:52;6.10;;;3.77;;
37529;SDS011;23374;52.758;6.872;2022-09-09T07:06:15;11.30;;;4.83;;
37529;SDS011;23374;52.758;6.872;2022-09-09T07:08:40;9.07;;;4.90;;
37529;SDS011;23374;52.758;6.872;2022-09-09T07:11:04;8.73;;;4.33;;
37529;SDS011;23374;52.758;6.872;2022-09-09T07:13:26;6.37;;;4.20;;
37529;SDS011;23374;52.758;6.872;2022-09-09T07:15:46;6.60;;;4.23;;
37529;SDS011;23374;52.758;6.872;2022-09-09T07:18:07;6.37;;;3.57;;
37529;SDS011;23374;52.758;6.872;2022-09-09T07:20:30;9.87;;;4.07;;
37529;SDS011;23374;52.758;6.872;2022-09-09T07:22:50;6.53;;;3.57;;
37529;SDS011;23374;52.758;6.872;2022-09-09T07:25:14;8.60;;;3.73;;
37529;SDS011;23374;52.758;6.872;2022-09-09T07:27:36;6.30;;;4.20;;
37529;SDS011;23374;52.758;6.872;2022-09-09T07:29:56;5.37;;;3.77;;
37529;SDS011;23374;52.758;6.872;2022-09-09T07:32:17;7.00;;;3.67;;
37529;SDS011;23374;52.758;6.872;2022-09-09T07:34:39;9.97;;;4.13;;
37529;SDS011;23374;52.758;6.872;2022-09-09T07:36:59;7.90;;;3.80;;
37529;SDS011;23374;52.758;6.872;2022-09-09T07:39:19;7.47;;;3.53;;
37529;SDS011;23374;52.758;6.872;2022-09-09T07:41:42;6.50;;;3.70;;
37529;SDS011;23374;52.758;6.872;2022-09-09T07:44:05;6.10;;;4.30;;
37529;SDS011;23374;52.758;6.872;2022-09-09T07:46:27;7.53;;;4.17;;
37529;SDS011;23374;52.758;6.872;2022-09-09T07:48:53;7.73;;;4.47;;
37529;SDS011;23374;52.758;6.872;2022-09-09T07:51:15;6.33;;;3.73;;
37529;SDS011;23374;52.758;6.872;2022-09-09T07:53:38;7.20;;;4.00;;
37529;SDS011;23374;52.758;6.872;2022-09-09T07:56:13;9.73;;;4.47;;
37529;SDS011;23374;52.758;6.872;2022-09-09T07:58:40;5.90;;;3.97;;
37529;SDS011;23374;52.758;6.872;2022-09-09T08:01:10;8.43;;;3.90;;
37529;SDS011;23374;52.758;6.872;2022-09-09T08:03:33;7.53;;;4.70;;
37529;SDS011;23374;52.758;6.872;2022-09-09T08:06:00;6.67;;;3.83;;
37529;SDS011;23374;52.758;6.872;2022-09-09T08:08:22;8.97;;;3.83;;
37529;SDS011;23374;52.758;6.872;2022-09-09T08:10:43;7.43;;;3.40;;
37529;SDS011;23374;52.758;6.872;2022-09-09T08:13:03;8.63;;;3.70;;
37529;SDS011;23374;52.758;6.872;2022-09-09T08:15:24;6.73;;;3.43;;
37529;SDS011;23374;52.758;6.872;2022-09-09T08:17:45;5.73;;;3.60;;
37529;SDS011;23374;52.758;6.872;2022-09-09T08:20:06;8.90;;;3.50;;
37529;SDS011;23374;52.758;6.872;2022-09-09T08:22:26;7.00;;;3.70;;
37529;SDS011;23374;52.758;6.872;2022-09-09T08:24:47;6.60;;;3.77;;
37529;SDS011;23374;52.758;6.872;2022-09-09T08:27:07;4.90;;;3.37;;
37529;SDS011;23374;52.758;6.872;2022-09-09T08:29:29;7.60;;;3.47;;
37529;SDS011;23374;52.758;6.872;2022-09-09T08:31:52;5.83;;;3.20;;
37529;SDS011;23374;52.758;6.872;2022-09-09T08:34:16;4.70;;;2.77;;
37529;SDS011;23374;52.758;6.872;2022-09-09T08:36:41;5.47;;;2.70;;
37529;SDS011;23374;52.758;6.872;2022-09-09T08:39:04;5.43;;;3.07;;
37529;SDS011;23374;52.758;6.872;2022-09-09T08:43:18;4.80;;;2.90;;
37529;SDS011;23374;52.758;6.872;2022-09-09T08:46:04;8.30;;;2.70;;
37529;SDS011;23374;52.758;6.872;2022-09-09T08:58:27;7.10;;;2.73;;
37529;SDS011;23374;52.758;6.872;2022-09-09T09:06:10;7.53;;;2.63;;
37529;SDS011;23374;52.758;6.872;2022-09-09T09:10:48;6.37;;;2.70;;
37529;SDS011;23374;52.758;6.872;2022-09-09T09:13:18;6.60;;;2.73;;
37529;SDS011;23374;52.758;6.872;2022-09-09T09:16:23;7.90;;;2.63;;
37529;SDS011;23374;52.758;6.872;2022-09-09T09:18:54;6.30;;;2.70;;
37529;SDS011;23374;52.758;6.872;2022-09-09T09:21:43;8.43;;;2.83;;
37529;SDS011;23374;52.758;6.872;2022-09-09T09:28:02;8.77;;;2.20;;
37529;SDS011;23374;52.758;6.872;2022-09-09T09:30:38;9.43;;;2.67;;
37529;SDS011;23374;52.758;6.872;2022-09-09T09:36:18;5.83;;;2.33;;
37529;SDS011;23374;52.758;6.872;2022-09-09T09:38:39;5.00;;;2.00;;
37529;SDS011;23374;52.758;6.872;2022-09-09T09:41:00;2.70;;;1.90;;
37529;SDS011;23374;52.758;6.872;2022-09-09T09:43:25;9.27;;;2.30;;
37529;SDS011;23374;52.758;6.872;2022-09-09T09:45:53;4.10;;;1.50;;
37529;SDS011;23374;52.758;6.872;2022-09-09T09:48:14;4.90;;;1.93;;
37529;SDS011;23374;52.758;6.872;2022-09-09T09:50:34;10.83;;;2.10;;
37529;SDS011;23374;52.758;6.872;2022-09-09T09:53:04;7.13;;;1.23;;
37529;SDS011;23374;52.758;6.872;2022-09-09T09:55:26;7.93;;;2.17;;
37529;SDS011;23374;52.758;6.872;2022-09-09T09:57:50;7.10;;;2.30;;
37529;SDS011;23374;52.758;6.872;2022-09-09T10:00:17;4.50;;;2.10;;
37529;SDS011;23374;52.758;6.872;2022-09-09T10:02:41;6.73;;;2.17;;
37529;SDS011;23374;52.758;6.872;2022-09-09T10:08:26;10.30;;;2.20;;
37529;SDS011;23374;52.758;6.872;2022-09-09T10:11:02;3.00;;;1.70;;
37529;SDS011;23374;52.758;6.872;2022-09-09T10:14:27;4.80;;;1.50;;
37529;SDS011;23374;52.758;6.872;2022-09-09T10:17:30;5.93;;;1.67;;
37529;SDS011;23374;52.758;6.872;2022-09-09T10:20:38;3.07;;;1.50;;
37529;SDS011;23374;52.758;6.872;2022-09-09T10:24:18;6.20;;;1.57;;
37529;SDS011;23374;52.758;6.872;2022-09-09T10:38:29;6.40;;;1.30;;
37529;SDS011;23374;52.758;6.872;2022-09-09T10:41:06;7.23;;;2.03;;
37529;SDS011;23374;52.758;6.872;2022-09-09T10:44:21;4.20;;;1.23;;
37529;SDS011;23374;52.758;6.872;2022-09-09T10:48:30;2.80;;;1.17;;
37529;SDS011;23374;52.758;6.872;2022-09-09T10:53:54;2.97;;;1.30;;
37529;SDS011;23374;52.758;6.872;2022-09-09T10:57:45;7.23;;;1.67;;
37529;SDS011;23374;52.758;6.872;2022-09-09T11:01:49;2.77;;;1.23;;
37529;SDS011;23374;52.758;6.872;2022-09-09T11:04:46;2.93;;;0.97;;
37529;SDS011;23374;52.758;6.872;2022-09-09T11:07:13;6.30;;;1.10;;
37529;SDS011;23374;52.758;6.872;2022-09-09T11:09:44;1.57;;;1.00;;
37529;SDS011;23374;52.758;6.872;2022-09-09T11:12:15;4.67;;;1.30;;
37529;SDS011;23374;52.758;6.872;2022-09-09T11:14:55;1.97;;;1.00;;
37529;SDS011;23374;52.758;6.872;2022-09-09T11:17:26;2.47;;;1.50;;
37529;SDS011;23374;52.758;6.872;2022-09-09T11:20:04;2.77;;;1.00;;
37529;SDS011;23374;52.758;6.872;2022-09-09T11:22:34;9.83;;;1.40;;
37529;SDS011;23374;52.758;6.872;2022-09-09T11:25:21;2.50;;;0.90;;
37529;SDS011;23374;52.758;6.872;2022-09-09T11:29:11;2.70;;;1.50;;
37529;SDS011;23374;52.758;6.872;2022-09-09T11:32:16;5.53;;;1.67;;
37529;SDS011;23374;52.758;6.872;2022-09-09T11:46:13;3.13;;;1.27;;
37529;SDS011;23374;52.758;6.872;2022-09-09T11:48:39;4.00;;;1.40;;
37529;SDS011;23374;52.758;6.872;2022-09-09T11:56:11;2.10;;;0.80;;
37529;SDS011;23374;52.758;6.872;2022-09-09T11:58:41;2.40;;;1.20;;
37529;SDS011;23374;52.758;6.872;2022-09-09T12:05:11;4.50;;;1.07;;
37529;SDS011;23374;52.758;6.872;2022-09-09T12:07:55;3.57;;;1.10;;
37529;SDS011;23374;52.758;6.872;2022-09-09T12:10:40;1.97;;;0.80;;
37529;SDS011;23374;52.758;6.872;2022-09-09T12:13:17;2.43;;;1.10;;
37529;SDS011;23374;52.758;6.872;2022-09-09T12:15:50;3.87;;;1.00;;
37529;SDS011;23374;52.758;6.872;2022-09-09T12:18:35;2.07;;;0.90;;
37529;SDS011;23374;52.758;6.872;2022-09-09T12:21:34;4.43;;;1.00;;
37529;SDS011;23374;52.758;6.872;2022-09-09T12:24:11;2.90;;;1.00;;
37529;SDS011;23374;52.758;6.872;2022-09-09T12:29:42;3.00;;;1.03;;
37529;SDS011;23374;52.758;6.872;2022-09-09T12:32:24;3.30;;;1.00;;
37529;SDS011;23374;52.758;6.872;2022-09-09T12:36:07;3.53;;;1.07;;
37529;SDS011;23374;52.758;6.872;2022-09-09T12:38:38;3.43;;;1.10;;
37529;SDS011;23374;52.758;6.872;2022-09-09T12:41:00;6.10;;;1.40;;
37529;SDS011;23374;52.758;6.872;2022-09-09T12:43:22;2.97;;;1.10;;
37529;SDS011;23374;52.758;6.872;2022-09-09T12:45:43;4.63;;;1.10;;
37529;SDS011;23374;52.758;6.872;2022-09-09T12:48:06;3.80;;;1.27;;
37529;SDS011;23374;52.758;6.872;2022-09-09T12:50:36;3.10;;;1.40;;
37529;SDS011;23374;52.758;6.872;2022-09-09T12:53:12;3.27;;;1.00;;
37529;SDS011;23374;52.758;6.872;2022-09-09T12:56:35;2.83;;;1.10;;
37529;SDS011;23374;52.758;6.872;2022-09-09T12:58:57;4.27;;;1.10;;
37529;SDS011;23374;52.758;6.872;2022-09-09T13:01:31;2.97;;;0.83;;
37529;SDS011;23374;52.758;6.872;2022-09-09T13:03:53;4.80;;;1.03;;
37529;SDS011;23374;52.758;6.872;2022-09-09T13:06:25;2.83;;;1.03;;
37529;SDS011;23374;52.758;6.872;2022-09-09T13:08:47;2.23;;;1.00;;
37529;SDS011;23374;52.758;6.872;2022-09-09T13:11:10;1.90;;;0.90;;
37529;SDS011;23374;52.758;6.872;2022-09-09T13:13:38;4.47;;;0.90;;
37529;SDS011;23374;52.758;6.872;2022-09-09T13:16:01;2.90;;;1.10;;
37529;SDS011;23374;52.758;6.872;2022-09-09T13:18:34;7.77;;;1.57;;
37529;SDS011;23374;52.758;6.872;2022-09-09T13:20:57;6.33;;;1.60;;
37529;SDS011;23374;52.758;6.872;2022-09-09T13:23:19;4.83;;;1.47;;
37529;SDS011;23374;52.758;6.872;2022-09-09T13:25:40;6.70;;;1.47;;
37529;SDS011;23374;52.758;6.872;2022-09-09T13:28:04;3.13;;;1.40;;
37529;SDS011;23374;52.758;6.872;2022-09-09T13:30:40;4.03;;;1.50;;
37529;SDS011;23374;52.758;6.872;2022-09-09T13:33:19;5.10;;;1.90;;
37529;SDS011;23374;52.758;6.872;2022-09-09T13:37:20;4.73;;;1.67;;
37529;SDS011;23374;52.758;6.872;2022-09-09T13:39:53;5.00;;;1.50;;
37529;SDS011;23374;52.758;6.872;2022-09-09T13:42:28;1.83;;;1.20;;
37529;SDS011;23374;52.758;6.872;2022-09-09T13:44:51;1.43;;;1.13;;
37529;SDS011;23374;52.758;6.872;2022-09-09T13:47:19;3.93;;;1.30;;
37529;SDS011;23374;52.758;6.872;2022-09-09T13:49:41;5.70;;;1.23;;
37529;SDS011;23374;52.758;6.872;2022-09-09T13:52:10;2.23;;;1.10;;
37529;SDS011;23374;52.758;6.872;2022-09-09T13:54:38;1.97;;;0.93;;
37529;SDS011;23374;52.758;6.872;2022-09-09T13:56:59;2.10;;;1.13;;
37529;SDS011;23374;52.758;6.872;2022-09-09T13:59:20;1.67;;;0.80;;
37529;SDS011;23374;52.758;6.872;2022-09-09T14:01:41;3.27;;;0.80;;
37529;SDS011;23374;52.758;6.872;2022-09-09T14:04:03;2.47;;;0.80;;
37529;SDS011;23374;52.758;6.872;2022-09-09T14:06:26;2.23;;;1.23;;
37529;SDS011;23374;52.758;6.872;2022-09-09T14:08:48;0.60;;;0.60;;
37529;SDS011;23374;52.758;6.872;2022-09-09T14:11:11;0.90;;;0.50;;
37529;SDS011;23374;52.758;6.872;2022-09-09T14:13:32;1.63;;;0.70;;
37529;SDS011;23374;52.758;6.872;2022-09-09T14:15:53;2.73;;;0.60;;
37529;SDS011;23374;52.758;6.872;2022-09-09T14:18:13;1.60;;;0.60;;
37529;SDS011;23374;52.758;6.872;2022-09-09T14:20:33;3.20;;;0.80;;
37529;SDS011;23374;52.758;6.872;2022-09-09T14:22:53;1.43;;;0.60;;
37529;SDS011;23374;52.758;6.872;2022-09-09T14:25:14;0.60;;;0.50;;
37529;SDS011;23374;52.758;6.872;2022-09-09T14:27:35;0.50;;;0.50;;
37529;SDS011;23374;52.758;6.872;2022-09-09T14:29:55;2.10;;;0.70;;
37529;SDS011;23374;52.758;6.872;2022-09-09T14:32:17;0.67;;;0.50;;
37529;SDS011;23374;52.758;6.872;2022-09-09T14:34:37;2.20;;;0.90;;
37529;SDS011;23374;52.758;6.872;2022-09-09T14:36:58;1.57;;;0.67;;
37529;SDS011;23374;52.758;6.872;2022-09-09T14:39:18;1.83;;;0.87;;
37529;SDS011;23374;52.758;6.872;2022-09-09T14:41:39;2.83;;;0.73;;
37529;SDS011;23374;52.758;6.872;2022-09-09T14:43:59;1.57;;;0.60;;
37529;SDS011;23374;52.758;6.872;2022-09-09T14:46:20;1.97;;;0.80;;
37529;SDS011;23374;52.758;6.872;2022-09-09T14:48:41;0.97;;;0.77;;
37529;SDS011;23374;52.758;6.872;2022-09-09T14:51:12;1.60;;;1.00;;
37529;SDS011;23374;52.758;6.872;2022-09-09T14:53:39;4.07;;;1.00;;
37529;SDS011;23374;52.758;6.872;2022-09-09T14:56:04;5.37;;;1.00;;
37529;SDS011;23374;52.758;6.872;2022-09-09T14:58:36;2.37;;;1.07;;
37529;SDS011;23374;52.758;6.872;2022-09-09T15:03:34;4.07;;;1.10;;
37529;SDS011;23374;52.758;6.872;2022-09-09T15:05:54;1.33;;;1.00;;
37529;SDS011;23374;52.758;6.872;2022-09-09T15:08:15;2.90;;;1.00;;
37529;SDS011;23374;52.758;6.872;2022-09-09T15:10:36;2.60;;;1.33;;
37529;SDS011;23374;52.758;6.872;2022-09-09T15:12:57;2.60;;;1.20;;
37529;SDS011;23374;52.758;6.872;2022-09-09T15:15:17;2.50;;;1.13;;
37529;SDS011;23374;52.758;6.872;2022-09-09T15:17:38;2.13;;;1.30;;
37529;SDS011;23374;52.758;6.872;2022-09-09T15:19:58;4.67;;;0.97;;
37529;SDS011;23374;52.758;6.872;2022-09-09T15:22:18;1.70;;;1.07;;
37529;SDS011;23374;52.758;6.872;2022-09-09T15:24:38;5.37;;;1.20;;
37529;SDS011;23374;52.758;6.872;2022-09-09T15:26:59;1.63;;;1.00;;
37529;SDS011;23374;52.758;6.872;2022-09-09T15:29:20;3.60;;;1.23;;
37529;SDS011;23374;52.758;6.872;2022-09-09T15:31:41;1.63;;;1.10;;
37529;SDS011;23374;52.758;6.872;2022-09-09T15:34:03;2.77;;;1.20;;
37529;SDS011;23374;52.758;6.872;2022-09-09T15:36:25;1.70;;;1.00;;
37529;SDS011;23374;52.758;6.872;2022-09-09T15:39:07;2.27;;;1.20;;
37529;SDS011;23374;52.758;6.872;2022-09-09T15:41:35;2.17;;;1.00;;
37529;SDS011;23374;52.758;6.872;2022-09-09T15:43:56;1.77;;;1.23;;
37529;SDS011;23374;52.758;6.872;2022-09-09T15:46:45;4.40;;;1.30;;
37529;SDS011;23374;52.758;6.872;2022-09-09T15:49:17;4.07;;;1.30;;
37529;SDS011;23374;52.758;6.872;2022-09-09T15:51:40;3.00;;;1.10;;
37529;SDS011;23374;52.758;6.872;2022-09-09T15:54:03;4.47;;;1.30;;
37529;SDS011;23374;52.758;6.872;2022-09-09T15:56:25;3.80;;;1.23;;
37529;SDS011;23374;52.758;6.872;2022-09-09T15:58:47;3.90;;;1.40;;
37529;SDS011;23374;52.758;6.872;2022-09-09T16:01:08;2.00;;;1.20;;
37529;SDS011;23374;52.758;6.872;2022-09-09T16:03:34;1.93;;;1.13;;
37529;SDS011;23374;52.758;6.872;2022-09-09T16:05:55;1.73;;;1.00;;
37529;SDS011;23374;52.758;6.872;2022-09-09T16:08:15;1.60;;;1.10;;
37529;SDS011;23374;52.758;6.872;2022-09-09T16:10:37;2.13;;;1.00;;
37529;SDS011;23374;52.758;6.872;2022-09-09T16:12:57;2.00;;;1.10;;
37529;SDS011;23374;52.758;6.872;2022-09-09T16:15:18;1.43;;;1.00;;
37529;SDS011;23374;52.758;6.872;2022-09-09T16:17:42;1.37;;;1.10;;
37529;SDS011;23374;52.758;6.872;2022-09-09T16:20:04;3.20;;;1.37;;
37529;SDS011;23374;52.758;6.872;2022-09-09T16:22:28;3.03;;;1.33;;
37529;SDS011;23374;52.758;6.872;2022-09-09T16:24:48;4.77;;;1.40;;
37529;SDS011;23374;52.758;6.872;2022-09-09T16:27:08;5.90;;;1.20;;
37529;SDS011;23374;52.758;6.872;2022-09-09T16:29:29;2.90;;;0.90;;
37529;SDS011;23374;52.758;6.872;2022-09-09T16:31:49;2.40;;;1.33;;
37529;SDS011;23374;52.758;6.872;2022-09-09T16:34:10;3.60;;;1.40;;
37529;SDS011;23374;52.758;6.872;2022-09-09T16:36:33;4.57;;;1.33;;
37529;SDS011;23374;52.758;6.872;2022-09-09T16:38:57;3.23;;;1.60;;
37529;SDS011;23374;52.758;6.872;2022-09-09T16:41:19;1.97;;;1.50;;
37529;SDS011;23374;52.758;6.872;2022-09-09T16:43:40;2.30;;;1.40;;